Time;durP1;ratioP1;P1;durP2;ratioP2;P2;SDS_P1;SDS_P2;PMS_P1;PMS_P2;Temp;Humidity;BMP_temperature;BMP_pressure;BME280_temperature;BME280_humidity;BME280_pressure;Samples;Min_cycle;Max_cycle;Signal;HPM_P1;HPM_P2
2021/12/18 00:00:59;;;;;;;14.88;11.48;;;;;;;;;;2063400;28;20166;-60
2021/12/18 00:02:00;;;;;;;19.23;12.40;;;;;;;;;;2061518;28;20166;-59
2021/12/18 00:03:00;;;;;;;17.83;11.57;;;;;;;;;;2064315;28;20170;-60
2021/12/18 00:04:01;;;;;;;19.95;12.60;;;;;;;;;;2064408;28;20193;-57
2021/12/18 00:05:01;;;;;;;16.92;12.00;;;;;;;;;;2065582;28;20174;-60
2021/12/18 00:06:02;;;;;;;18.70;12.38;;;;;;;;;;2066638;28;20630;-63
2021/12/18 00:07:02;;;;;;;18.50;12.15;;;;;;;;;;2068275;28;20238;-62
2021/12/18 00:08:02;;;;;;;16.35;11.23;;;;;;;;;;2067265;28;20281;-57
2021/12/18 00:09:03;;;;;;;15.57;12.18;;;;;;;;;;2066484;28;20161;-60
2021/12/18 00:10:04;;;;;;;17.58;11.60;;;;;;;;;;2065605;28;20252;-60
2021/12/18 00:11:05;;;;;;;14.48;11.05;;;;;;;;;;2060764;28;20582;-62
2021/12/18 00:12:06;;;;;;;15.68;11.30;;;;;;;;;;2065787;28;20165;-60
2021/12/18 00:13:06;;;;;;;18.52;10.50;;;;;;;;;;2065237;28;20224;-59
2021/12/18 00:14:07;;;;;;;16.10;11.40;;;;;;;;;;2065448;28;20187;-61
2021/12/18 00:15:07;;;;;;;16.85;10.90;;;;;;;;;;2064828;28;20173;-63
2021/12/18 00:16:08;;;;;;;15.10;10.90;;;;;;;;;;2065444;28;20205;-62
2021/12/18 00:17:08;;;;;;;14.73;11.10;;;;;;;;;;2057956;28;20665;-60
2021/12/18 00:18:08;;;;;;;16.42;10.82;;;;;;;;;;2066206;28;20185;-60
2021/12/18 00:19:08;;;;;;;15.52;11.18;;;;;;;;;;2056825;28;20218;-62
2021/12/18 00:20:10;;;;;;;15.23;9.98;;;;;;;;;;2064188;28;20917;-62
2021/12/18 00:21:14;;;;;;;14.52;10.57;;;;;;;;;;2064418;28;20209;-62
2021/12/18 00:22:14;;;;;;;15.32;10.25;;;;;;;;;;2055714;28;20206;-60
2021/12/18 00:23:14;;;;;;;14.27;9.15;;;;;;;;;;2058316;28;20216;-59
2021/12/18 00:24:14;;;;;;;15.25;10.50;;;;;;;;;;2056407;28;20188;-60
2021/12/18 00:25:15;;;;;;;16.63;10.80;;;;;;;;;;2057983;28;20177;-60
2021/12/18 00:26:15;;;;;;;14.45;11.23;;;;;;;;;;2063654;28;20252;-61
2021/12/18 00:27:15;;;;;;;16.02;10.77;;;;;;;;;;2056659;28;20257;-60
2021/12/18 00:28:16;;;;;;;13.60;9.52;;;;;;;;;;2054716;28;20648;-63
2021/12/18 00:29:16;;;;;;;15.00;9.40;;;;;;;;;;2065619;28;20650;-62
2021/12/18 00:30:16;;;;;;;11.65;8.90;;;;;;;;;;2067102;28;20169;-63
2021/12/18 00:31:17;;;;;;;17.00;10.25;;;;;;;;;;2065660;28;20173;-62
2021/12/18 00:32:17;;;;;;;12.25;8.90;;;;;;;;;;2066702;28;20570;-62
2021/12/18 00:33:17;;;;;;;13.70;9.80;;;;;;;;;;2065015;28;20177;-59
2021/12/18 00:34:18;;;;;;;11.57;8.60;;;;;;;;;;2064610;28;20192;-60
2021/12/18 00:35:18;;;;;;;13.02;9.70;;;;;;;;;;2065641;28;20174;-59
2021/12/18 00:36:19;;;;;;;13.73;8.73;;;;;;;;;;2061456;28;20798;-63
2021/12/18 00:37:19;;;;;;;12.77;8.90;;;;;;;;;;2057203;28;20193;-62
2021/12/18 00:38:27;;;;;;;12.43;9.10;;;;;;;;;;2066518;28;20277;-61
2021/12/18 00:39:30;;;;;;;11.32;7.93;;;;;;;;;;2065087;28;20161;-59
2021/12/18 00:40:43;;;;;;;12.15;7.75;;;;;;;;;;2065535;28;20586;-62
2021/12/18 00:42:50;;;;;;;10.32;7.90;;;;;;;;;;2072729;28;20587;-63
2021/12/18 00:44:03;;;;;;;12.52;8.27;;;;;;;;;;2067372;28;20169;-63
2021/12/18 00:45:09;;;;;;;11.75;8.05;;;;;;;;;;2065920;28;20206;-62
2021/12/18 00:46:09;;;;;;;14.13;10.23;;;;;;;;;;2065942;28;20186;-63
2021/12/18 00:47:09;;;;;;;12.00;10.73;;;;;;;;;;2066112;28;20166;-63
2021/12/18 00:48:09;;;;;;;9.80;7.22;;;;;;;;;;2059259;28;20708;-62
2021/12/18 00:49:14;;;;;;;11.55;8.77;;;;;;;;;;2065267;28;20593;-62
2021/12/18 00:50:16;;;;;;;13.07;10.20;;;;;;;;;;2061506;28;20186;-61
2021/12/18 00:51:17;;;;;;;12.73;10.38;;;;;;;;;;2057354;28;20341;-63
2021/12/18 00:52:18;;;;;;;11.02;8.55;;;;;;;;;;2069524;28;20207;-60
2021/12/18 00:53:18;;;;;;;10.45;7.57;;;;;;;;;;2070694;28;20196;-63
2021/12/18 00:54:19;;;;;;;11.77;7.57;;;;;;;;;;2065548;28;20185;-60
2021/12/18 00:55:20;;;;;;;10.63;7.80;;;;;;;;;;2064734;28;20208;-59
2021/12/18 00:56:22;;;;;;;10.63;7.43;;;;;;;;;;2064741;28;20287;-59
2021/12/18 00:57:22;;;;;;;11.23;7.97;;;;;;;;;;2065390;28;20169;-60
2021/12/18 00:58:22;;;;;;;9.55;8.05;;;;;;;;;;2065525;28;20165;-58
2021/12/18 00:59:23;;;;;;;10.25;8.13;;;;;;;;;;2065044;28;20781;-58
2021/12/18 01:00:24;;;;;;;11.20;7.50;;;;;;;;;;2048493;28;20202;-59
2021/12/18 01:01:26;;;;;;;10.60;7.05;;;;;;;;;;2049893;28;20250;-61
2021/12/18 01:02:27;;;;;;;10.20;7.00;;;;;;;;;;2048971;29;20176;-61
2021/12/18 01:03:27;;;;;;;10.95;7.30;;;;;;;;;;2054197;28;20169;-60
2021/12/18 01:04:28;;;;;;;9.82;6.43;;;;;;;;;;2056887;28;20228;-59
2021/12/18 01:05:30;;;;;;;10.57;7.70;;;;;;;;;;2059429;28;20178;-58
2021/12/18 01:06:30;;;;;;;8.45;6.38;;;;;;;;;;2057395;28;20272;-60
2021/12/18 01:07:30;;;;;;;9.02;6.65;;;;;;;;;;2059370;28;20174;-60
2021/12/18 01:08:31;;;;;;;8.32;6.30;;;;;;;;;;2054280;28;20178;-61
2021/12/18 01:12:13;;;;;;;7.78;6.15;;;;;;;;;;2064675;28;20158;-61
2021/12/18 01:13:19;;;;;;;9.65;6.35;;;;;;;;;;2061586;28;20627;-62
2021/12/18 01:15:31;;;;;;;7.88;5.80;;;;;;;;;;2062785;28;20545;-61
2021/12/18 01:16:45;;;;;;;8.75;6.32;;;;;;;;;;2064573;28;20703;-62
2021/12/18 01:23:01;;;;;;;7.30;5.35;;;;;;;;;;2063456;28;20626;-59
2021/12/18 01:24:03;;;;;;;8.52;5.45;;;;;;;;;;2063791;28;20192;-63
2021/12/18 01:25:04;;;;;;;7.82;5.50;;;;;;;;;;2064082;28;20166;-62
2021/12/18 01:26:04;;;;;;;8.23;5.50;;;;;;;;;;2057920;28;20195;-61
2021/12/18 01:27:04;;;;;;;11.32;6.53;;;;;;;;;;2062828;28;20206;-60
2021/12/18 01:28:05;;;;;;;10.05;7.45;;;;;;;;;;2064621;28;20599;-62
2021/12/18 01:29:05;;;;;;;7.38;5.38;;;;;;;;;;2059239;28;20182;-62
2021/12/18 01:30:07;;;;;;;6.32;5.10;;;;;;;;;;2064107;28;20212;-61
2021/12/18 01:31:09;;;;;;;6.03;4.55;;;;;;;;;;2065845;28;20279;-62
2021/12/18 01:32:09;;;;;;;7.65;5.50;;;;;;;;;;2056351;28;20166;-63
2021/12/18 01:33:09;;;;;;;6.05;4.88;;;;;;;;;;2049605;28;20206;-62
2021/12/18 01:34:09;;;;;;;7.15;5.10;;;;;;;;;;2055713;28;20265;-63
2021/12/18 01:35:10;;;;;;;7.20;4.97;;;;;;;;;;2066567;28;20186;-63
2021/12/18 01:36:10;;;;;;;5.47;4.63;;;;;;;;;;2065668;28;20188;-64
2021/12/18 01:37:10;;;;;;;6.50;4.93;;;;;;;;;;2060179;28;20192;-62
2021/12/18 01:38:11;;;;;;;6.47;5.18;;;;;;;;;;2065353;28;20260;-62
2021/12/18 01:39:11;;;;;;;7.32;5.60;;;;;;;;;;2065397;28;20434;-66
2021/12/18 01:40:12;;;;;;;5.90;4.95;;;;;;;;;;2058942;28;20292;-62
2021/12/18 01:41:14;;;;;;;6.88;5.07;;;;;;;;;;2064579;28;20228;-64
2021/12/18 01:46:13;;;;;;;6.13;5.13;;;;;;;;;;2058002;28;20167;-63
2021/12/18 01:52:33;;;;;;;4.15;3.45;;;;;;;;;;2031760;29;20785;-62
2021/12/18 01:53:34;;;;;;;3.92;3.58;;;;;;;;;;2030900;29;20188;-62
2021/12/18 01:54:34;;;;;;;3.53;3.17;;;;;;;;;;2054680;28;20187;-59
2021/12/18 01:55:35;;;;;;;4.38;3.92;;;;;;;;;;2056241;28;20179;-61
2021/12/18 01:56:35;;;;;;;3.30;3.00;;;;;;;;;;2059649;28;20198;-61
2021/12/18 01:57:36;;;;;;;3.70;3.35;;;;;;;;;;2064516;28;20209;-60
2021/12/18 01:58:37;;;;;;;3.90;3.60;;;;;;;;;;2059474;28;20575;-59
2021/12/18 01:59:39;;;;;;;4.18;3.72;;;;;;;;;;2058268;28;20167;-61
2021/12/18 02:00:41;;;;;;;4.05;3.65;;;;;;;;;;2063488;28;20173;-62
2021/12/18 02:01:41;;;;;;;3.65;3.35;;;;;;;;;;2063378;28;20192;-63
2021/12/18 02:02:42;;;;;;;4.53;3.80;;;;;;;;;;2060973;28;20169;-61
2021/12/18 02:03:42;;;;;;;3.08;2.80;;;;;;;;;;2060198;28;20734;-62
2021/12/18 02:04:43;;;;;;;3.47;3.17;;;;;;;;;;2061182;28;20256;-61
2021/12/18 02:05:43;;;;;;;4.35;3.35;;;;;;;;;;2062140;28;20227;-62
2021/12/18 02:06:43;;;;;;;3.97;3.47;;;;;;;;;;2062641;28;20201;-62
2021/12/18 02:07:43;;;;;;;5.28;4.80;;;;;;;;;;2061885;28;20264;-61
2021/12/18 02:08:44;;;;;;;3.17;2.88;;;;;;;;;;2062582;28;20178;-64
2021/12/18 02:10:49;;;;;;;3.72;2.88;;;;;;;;;;2060296;28;20650;-62
2021/12/18 02:11:49;;;;;;;3.03;2.72;;;;;;;;;;2058307;28;20186;-62
2021/12/18 02:13:08;;;;;;;2.67;2.47;;;;;;;;;;2054297;28;20166;-59
2021/12/18 02:19:31;;;;;;;2.77;2.57;;;;;;;;;;2060410;28;20209;-61
2021/12/18 02:19:56;;;;;;;4.28;3.33;;;;;;;;;;2061858;28;20169;-61
2021/12/18 02:20:57;;;;;;;3.25;2.92;;;;;;;;;;2065673;28;20169;-61
2021/12/18 02:21:57;;;;;;;2.55;2.35;;;;;;;;;;2065062;28;20200;-61
2021/12/18 02:22:57;;;;;;;3.33;3.03;;;;;;;;;;2066023;28;20632;-60
2021/12/18 02:23:58;;;;;;;3.15;2.83;;;;;;;;;;2064470;28;20220;-59
2021/12/18 02:24:58;;;;;;;3.05;2.75;;;;;;;;;;2057438;28;20258;-58
2021/12/18 02:25:59;;;;;;;3.22;2.88;;;;;;;;;;2062382;28;20576;-58
2021/12/18 02:26:59;;;;;;;2.83;2.63;;;;;;;;;;2064516;28;20633;-63
2021/12/18 02:28:00;;;;;;;3.45;3.15;;;;;;;;;;2056787;28;20204;-60
2021/12/18 02:29:03;;;;;;;4.22;3.05;;;;;;;;;;2055651;28;20197;-62
2021/12/18 02:30:04;;;;;;;4.63;2.95;;;;;;;;;;2064146;28;20192;-61
2021/12/18 02:31:04;;;;;;;4.03;3.30;;;;;;;;;;2065739;28;20231;-59
2021/12/18 02:32:06;;;;;;;4.68;3.42;;;;;;;;;;2065787;28;20911;-61
2021/12/18 02:33:06;;;;;;;3.42;2.85;;;;;;;;;;2065616;28;20730;-61
2021/12/18 02:34:14;;;;;;;3.40;3.10;;;;;;;;;;2062682;28;20349;-62
2021/12/18 02:35:28;;;;;;;3.30;3.00;;;;;;;;;;2065599;28;20178;-62
2021/12/18 02:36:29;;;;;;;3.67;2.80;;;;;;;;;;2069167;28;20291;-62
2021/12/18 02:37:30;;;;;;;3.30;3.00;;;;;;;;;;2065973;28;20173;-59
2021/12/18 02:41:11;;;;;;;3.08;2.85;;;;;;;;;;2074602;28;20153;-61
2021/12/18 02:42:18;;;;;;;3.08;2.78;;;;;;;;;;2074780;28;20153;-62
2021/12/18 02:43:18;;;;;;;4.15;3.30;;;;;;;;;;2074900;28;20224;-62
2021/12/18 02:44:18;;;;;;;5.38;3.63;;;;;;;;;;2075007;28;20238;-62
2021/12/18 02:45:18;;;;;;;4.78;3.25;;;;;;;;;;2066207;28;20216;-62
2021/12/18 02:46:20;;;;;;;4.65;2.90;;;;;;;;;;2066396;28;20197;-60
2021/12/18 02:47:20;;;;;;;3.67;2.83;;;;;;;;;;2074845;28;20717;-60
2021/12/18 02:48:21;;;;;;;3.50;3.05;;;;;;;;;;2074796;28;20174;-62
2021/12/18 02:49:21;;;;;;;3.40;3.10;;;;;;;;;;2074533;28;20181;-57
2021/12/18 02:50:21;;;;;;;3.90;3.28;;;;;;;;;;2074398;28;20257;-59
2021/12/18 02:51:21;;;;;;;3.35;3.05;;;;;;;;;;2074902;28;20263;-57
2021/12/18 02:52:26;;;;;;;3.25;2.85;;;;;;;;;;2071645;28;20173;-63
2021/12/18 02:53:27;;;;;;;3.67;3.38;;;;;;;;;;2057689;28;20651;-62
2021/12/18 02:54:27;;;;;;;3.97;3.15;;;;;;;;;;2057877;28;20202;-63
2021/12/18 02:55:27;;;;;;;3.53;2.90;;;;;;;;;;2066295;28;20249;-62
2021/12/18 02:56:27;;;;;;;3.30;3.00;;;;;;;;;;2066031;28;20220;-62
2021/12/18 02:57:28;;;;;;;4.18;3.58;;;;;;;;;;2067909;28;20224;-60
2021/12/18 02:58:28;;;;;;;3.00;2.78;;;;;;;;;;2065020;28;20268;-62
2021/12/18 02:59:28;;;;;;;3.20;2.60;;;;;;;;;;2058156;28;20190;-62
2021/12/18 03:00:29;;;;;;;2.83;2.63;;;;;;;;;;2064112;28;20700;-60
2021/12/18 03:01:29;;;;;;;3.53;3.20;;;;;;;;;;2067834;28;20166;-63
2021/12/18 03:02:35;;;;;;;3.13;2.83;;;;;;;;;;2071449;28;20704;-59
2021/12/18 03:03:38;;;;;;;3.70;2.67;;;;;;;;;;2065726;28;20619;-61
2021/12/18 03:04:40;;;;;;;3.83;2.80;;;;;;;;;;2065800;28;20276;-62
2021/12/18 03:05:50;;;;;;;3.80;2.53;;;;;;;;;;2069011;28;20169;-61
2021/12/18 03:06:56;;;;;;;2.88;2.67;;;;;;;;;;2067249;28;20200;-62
2021/12/18 03:08:05;;;;;;;3.38;3.08;;;;;;;;;;2058370;28;20190;-60
2021/12/18 03:20:02;;;;;;;2.88;2.67;;;;;;;;;;2066289;28;20187;-62
2021/12/18 03:25:24;;;;;;;3.50;2.83;;;;;;;;;;2058272;28;20167;-61
2021/12/18 03:26:25;;;;;;;3.00;2.78;;;;;;;;;;2055502;28;20202;-62
2021/12/18 03:27:25;;;;;;;3.40;3.05;;;;;;;;;;2057602;28;20174;-61
2021/12/18 03:28:26;;;;;;;2.72;2.53;;;;;;;;;;2064483;28;20232;-61
2021/12/18 03:29:27;;;;;;;2.40;2.17;;;;;;;;;;2066355;28;20173;-59
2021/12/18 03:30:27;;;;;;;4.07;2.88;;;;;;;;;;2063511;28;20537;-62
2021/12/18 03:31:28;;;;;;;2.85;2.65;;;;;;;;;;2058215;28;20174;-61
2021/12/18 03:32:28;;;;;;;2.90;2.63;;;;;;;;;;2060249;28;20163;-61
2021/12/18 03:33:28;;;;;;;2.95;2.67;;;;;;;;;;2066154;28;20256;-59
2021/12/18 03:34:28;;;;;;;3.03;2.72;;;;;;;;;;2064682;28;20194;-60
2021/12/18 03:35:29;;;;;;;3.20;2.72;;;;;;;;;;2060708;28;20205;-63
2021/12/18 03:36:30;;;;;;;3.42;3.13;;;;;;;;;;2063240;28;20194;-63
2021/12/18 03:37:30;;;;;;;2.88;2.67;;;;;;;;;;2074201;28;20168;-61
2021/12/18 03:38:30;;;;;;;3.22;2.92;;;;;;;;;;2074405;28;20173;-63
2021/12/18 03:39:31;;;;;;;3.28;2.67;;;;;;;;;;2074144;28;20264;-62
2021/12/18 03:40:31;;;;;;;3.05;2.80;;;;;;;;;;2071453;28;20197;-62
2021/12/18 03:41:31;;;;;;;3.25;2.95;;;;;;;;;;2065893;28;20201;-62
2021/12/18 03:42:32;;;;;;;4.57;3.13;;;;;;;;;;2066337;28;20158;-61
2021/12/18 03:43:32;;;;;;;3.15;2.83;;;;;;;;;;2066066;28;20265;-60
2021/12/18 03:44:33;;;;;;;3.55;3.25;;;;;;;;;;2066236;28;20174;-61
2021/12/18 03:45:33;;;;;;;2.70;2.50;;;;;;;;;;2066113;28;20160;-62
2021/12/18 03:46:34;;;;;;;3.88;3.20;;;;;;;;;;2066214;28;20757;-60
2021/12/18 03:47:35;;;;;;;3.72;3.42;;;;;;;;;;2066359;28;20181;-62
2021/12/18 03:48:35;;;;;;;3.15;2.85;;;;;;;;;;2066285;28;20197;-60
2021/12/18 03:49:35;;;;;;;3.03;2.83;;;;;;;;;;2066219;28;20184;-62
2021/12/18 03:50:35;;;;;;;3.85;2.90;;;;;;;;;;2065942;28;20617;-60
2021/12/18 03:51:36;;;;;;;3.30;3.00;;;;;;;;;;2065975;28;20662;-61
2021/12/18 03:52:36;;;;;;;3.30;3.00;;;;;;;;;;2066136;28;20176;-62
2021/12/18 03:53:36;;;;;;;2.70;2.50;;;;;;;;;;2057561;28;20705;-62
2021/12/18 03:54:36;;;;;;;3.38;3.13;;;;;;;;;;2057870;28;20225;-62
2021/12/18 03:55:37;;;;;;;3.08;2.88;;;;;;;;;;2066227;28;20170;-59
2021/12/18 03:56:37;;;;;;;3.35;3.05;;;;;;;;;;2057428;28;20229;-61
2021/12/18 03:57:37;;;;;;;4.18;3.38;;;;;;;;;;2057407;28;20261;-61
2021/12/18 03:58:39;;;;;;;5.00;4.00;;;;;;;;;;2066033;28;20170;-61
2021/12/18 03:59:39;;;;;;;3.88;3.40;;;;;;;;;;2065889;28;20182;-62
2021/12/18 04:00:39;;;;;;;5.18;3.78;;;;;;;;;;2057004;28;20170;-62
2021/12/18 04:01:40;;;;;;;4.80;3.70;;;;;;;;;;2057524;28;20182;-60
2021/12/18 04:02:41;;;;;;;3.65;3.35;;;;;;;;;;2065912;28;20182;-58
2021/12/18 04:03:41;;;;;;;3.55;3.25;;;;;;;;;;2065977;28;20181;-60
2021/12/18 04:04:41;;;;;;;3.20;2.97;;;;;;;;;;2065899;28;20644;-61
2021/12/18 04:05:42;;;;;;;4.40;3.08;;;;;;;;;;2052418;28;20679;-61
2021/12/18 04:06:42;;;;;;;3.92;3.58;;;;;;;;;;2049158;28;20214;-59
2021/12/18 04:07:45;;;;;;;4.10;3.08;;;;;;;;;;2054896;28;20801;-53
2021/12/18 04:08:45;;;;;;;3.25;2.92;;;;;;;;;;2056735;28;20633;-59
2021/12/18 04:09:48;;;;;;;3.78;3.40;;;;;;;;;;2056646;28;20162;-62
2021/12/18 04:10:48;;;;;;;4.05;3.35;;;;;;;;;;2056689;28;20190;-59
2021/12/18 04:11:48;;;;;;;3.15;2.85;;;;;;;;;;2049168;28;20270;-58
2021/12/18 04:12:58;;;;;;;3.63;3.33;;;;;;;;;;2049304;28;20254;-60
2021/12/18 04:13:58;;;;;;;3.53;3.22;;;;;;;;;;2058312;28;20225;-61
2021/12/18 04:14:58;;;;;;;3.50;3.20;;;;;;;;;;2066975;28;20177;-61
2021/12/18 04:15:59;;;;;;;3.72;3.33;;;;;;;;;;2057759;28;20791;-60
2021/12/18 04:16:59;;;;;;;4.30;3.90;;;;;;;;;;2065442;28;20189;-59
2021/12/18 04:17:59;;;;;;;5.07;3.80;;;;;;;;;;2061695;28;20201;-60
2021/12/18 04:19:01;;;;;;;3.28;2.97;;;;;;;;;;2062341;28;20174;-61
2021/12/18 04:20:02;;;;;;;3.47;3.17;;;;;;;;;;2067415;28;20197;-60
2021/12/18 04:21:02;;;;;;;4.45;3.72;;;;;;;;;;2061337;28;20179;-63
2021/12/18 04:22:03;;;;;;;4.13;3.13;;;;;;;;;;2057657;28;20213;-62
2021/12/18 04:23:03;;;;;;;4.57;3.60;;;;;;;;;;2057683;28;20206;-62
2021/12/18 04:24:04;;;;;;;4.45;3.65;;;;;;;;;;2061296;28;20650;-58
2021/12/18 04:25:04;;;;;;;3.92;3.53;;;;;;;;;;2056930;28;20203;-60
2021/12/18 04:26:04;;;;;;;3.85;3.53;;;;;;;;;;2050649;28;20186;-61
2021/12/18 04:27:05;;;;;;;3.80;3.10;;;;;;;;;;2057469;28;20639;-62
2021/12/18 04:28:05;;;;;;;3.90;3.50;;;;;;;;;;2058468;28;20170;-62
2021/12/18 04:29:06;;;;;;;4.38;3.95;;;;;;;;;;2057753;28;20189;-60
2021/12/18 04:30:06;;;;;;;4.88;4.20;;;;;;;;;;2058210;28;20206;-62
2021/12/18 04:31:06;;;;;;;4.85;4.43;;;;;;;;;;2048997;28;20302;-62
2021/12/18 04:32:07;;;;;;;5.10;4.07;;;;;;;;;;2049247;28;20712;-62
2021/12/18 04:33:07;;;;;;;4.50;4.03;;;;;;;;;;2065280;28;20177;-63
2021/12/18 04:34:07;;;;;;;4.88;3.78;;;;;;;;;;2064296;28;20279;-62
2021/12/18 04:35:08;;;;;;;4.00;3.63;;;;;;;;;;2057598;28;20204;-62
2021/12/18 04:36:08;;;;;;;4.03;3.63;;;;;;;;;;2058816;28;20257;-62
2021/12/18 04:37:08;;;;;;;4.40;4.00;;;;;;;;;;2064479;28;20185;-60
2021/12/18 04:38:09;;;;;;;4.13;3.72;;;;;;;;;;2064064;28;20169;-60
2021/12/18 04:39:09;;;;;;;5.22;4.10;;;;;;;;;;2057681;28;20258;-61
2021/12/18 04:40:10;;;;;;;5.55;4.60;;;;;;;;;;2057275;28;20217;-64
2021/12/18 04:41:11;;;;;;;4.25;3.85;;;;;;;;;;2057304;28;20182;-60
2021/12/18 04:42:11;;;;;;;4.78;3.60;;;;;;;;;;2057304;28;20177;-62
2021/12/18 04:43:12;;;;;;;4.00;3.53;;;;;;;;;;2058871;28;20188;-60
2021/12/18 04:44:12;;;;;;;4.20;3.70;;;;;;;;;;2060432;28;20665;-59
2021/12/18 04:45:12;;;;;;;4.00;3.60;;;;;;;;;;2057280;28;20596;-60
2021/12/18 04:46:13;;;;;;;4.82;3.47;;;;;;;;;;2058669;28;20780;-61
2021/12/18 04:47:13;;;;;;;3.78;3.47;;;;;;;;;;2057303;28;20242;-59
2021/12/18 04:48:13;;;;;;;4.72;3.63;;;;;;;;;;2057274;28;20567;-59
2021/12/18 04:49:13;;;;;;;4.15;3.83;;;;;;;;;;2058573;28;20178;-60
2021/12/18 04:50:14;;;;;;;3.90;3.60;;;;;;;;;;2072595;28;20663;-63
2021/12/18 04:51:14;;;;;;;3.95;3.58;;;;;;;;;;2063046;28;20186;-62
2021/12/18 04:52:14;;;;;;;4.32;3.20;;;;;;;;;;2064733;28;20249;-59
2021/12/18 04:53:14;;;;;;;4.28;3.55;;;;;;;;;;2073574;28;20232;-62
2021/12/18 04:54:15;;;;;;;5.78;3.17;;;;;;;;;;2064517;28;20181;-62
2021/12/18 04:55:15;;;;;;;6.68;3.20;;;;;;;;;;2049371;28;20187;-62
2021/12/18 04:56:15;;;;;;;3.20;2.90;;;;;;;;;;2057300;28;20202;-60
2021/12/18 04:57:16;;;;;;;4.93;3.20;;;;;;;;;;2057281;28;20175;-62
2021/12/18 04:58:16;;;;;;;2.78;2.58;;;;;;;;;;2057522;28;20181;-62
2021/12/18 04:59:17;;;;;;;2.55;2.38;;;;;;;;;;2061416;28;20617;-63
2021/12/18 05:00:19;;;;;;;4.35;2.47;;;;;;;;;;2064954;28;20597;-63
2021/12/18 05:01:19;;;;;;;4.75;2.83;;;;;;;;;;2064803;28;20166;-61
2021/12/18 05:02:23;;;;;;;4.65;2.97;;;;;;;;;;2064689;28;20260;-63
2021/12/18 05:03:23;;;;;;;3.20;2.90;;;;;;;;;;2073527;28;20196;-64
2021/12/18 05:04:23;;;;;;;6.00;3.35;;;;;;;;;;2072594;28;20684;-61
2021/12/18 05:05:24;;;;;;;4.18;3.10;;;;;;;;;;2056891;28;20214;-63
2021/12/18 05:06:24;;;;;;;5.88;3.78;;;;;;;;;;2056621;28;20194;-62
2021/12/18 05:07:25;;;;;;;5.15;3.85;;;;;;;;;;2065437;28;20166;-62
2021/12/18 05:08:25;;;;;;;5.43;4.20;;;;;;;;;;2065330;28;20161;-62
2021/12/18 05:09:25;;;;;;;4.30;3.30;;;;;;;;;;2065333;28;20273;-62
2021/12/18 05:10:26;;;;;;;3.60;3.30;;;;;;;;;;2064943;28;20396;-62
2021/12/18 05:11:26;;;;;;;3.90;3.08;;;;;;;;;;2064515;28;20181;-61
2021/12/18 05:12:26;;;;;;;4.47;3.75;;;;;;;;;;2065316;28;20169;-62
2021/12/18 05:13:26;;;;;;;5.03;3.75;;;;;;;;;;2065162;28;20166;-62
2021/12/18 05:14:27;;;;;;;4.57;3.90;;;;;;;;;;2064850;28;20177;-57
2021/12/18 05:15:27;;;;;;;4.78;3.78;;;;;;;;;;2063535;28;20227;-61
2021/12/18 05:16:27;;;;;;;4.78;4.30;;;;;;;;;;2061186;28;20243;-58
2021/12/18 05:17:27;;;;;;;6.60;4.32;;;;;;;;;;2069568;28;20193;-61
2021/12/18 05:18:28;;;;;;;6.63;4.57;;;;;;;;;;2064024;28;20177;-63
2021/12/18 05:19:28;;;;;;;6.70;4.68;;;;;;;;;;2064318;28;20678;-61
2021/12/18 05:20:28;;;;;;;6.68;4.28;;;;;;;;;;2063300;28;20583;-62
2021/12/18 05:21:28;;;;;;;6.38;4.90;;;;;;;;;;2064391;28;20253;-63
2021/12/18 05:22:29;;;;;;;5.57;4.25;;;;;;;;;;2063677;28;20185;-62
2021/12/18 05:23:29;;;;;;;6.60;4.40;;;;;;;;;;2052742;28;20202;-62
2021/12/18 05:24:29;;;;;;;5.72;3.97;;;;;;;;;;2055892;28;20202;-61
2021/12/18 05:25:30;;;;;;;6.07;4.60;;;;;;;;;;2060218;28;20185;-63
2021/12/18 05:26:30;;;;;;;4.97;4.50;;;;;;;;;;2063927;28;20186;-64
2021/12/18 05:27:30;;;;;;;4.82;3.85;;;;;;;;;;2064026;28;20202;-65
2021/12/18 05:28:30;;;;;;;8.00;4.60;;;;;;;;;;2059891;28;20205;-61
2021/12/18 05:29:31;;;;;;;6.07;4.30;;;;;;;;;;2061278;28;20210;-63
2021/12/18 05:30:31;;;;;;;14.63;6.35;;;;;;;;;;2058341;28;20594;-60
2021/12/18 05:31:31;;;;;;;6.75;4.75;;;;;;;;;;2055810;28;20240;-62
2021/12/18 05:32:32;;;;;;;5.85;4.55;;;;;;;;;;2064399;28;20303;-58
2021/12/18 05:33:32;;;;;;;6.43;4.60;;;;;;;;;;2064238;28;20717;-58
2021/12/18 05:34:36;;;;;;;9.25;4.95;;;;;;;;;;2055815;28;20575;-56
2021/12/18 05:35:38;;;;;;;10.17;5.00;;;;;;;;;;2047922;28;20198;-60
2021/12/18 05:37:53;;;;;;;7.35;5.13;;;;;;;;;;2062209;28;20261;-63
2021/12/18 05:38:53;;;;;;;5.72;4.53;;;;;;;;;;2064282;28;20177;-61
2021/12/18 05:39:54;;;;;;;7.10;4.10;;;;;;;;;;2064761;28;20243;-61
2021/12/18 05:40:54;;;;;;;7.10;4.47;;;;;;;;;;2060122;28;20194;-62
2021/12/18 05:41:55;;;;;;;7.25;4.75;;;;;;;;;;2063864;28;20177;-61
2021/12/18 05:42:55;;;;;;;5.23;4.70;;;;;;;;;;2059671;28;20236;-61
2021/12/18 05:43:56;;;;;;;7.13;4.75;;;;;;;;;;2063108;28;20220;-60
2021/12/18 05:44:56;;;;;;;6.07;4.70;;;;;;;;;;2059694;28;20623;-60
2021/12/18 05:45:56;;;;;;;6.57;5.30;;;;;;;;;;2062667;28;20394;-62
2021/12/18 05:46:56;;;;;;;5.50;4.85;;;;;;;;;;2059199;28;20205;-58
2021/12/18 05:47:57;;;;;;;5.40;4.53;;;;;;;;;;2063403;28;20662;-60
2021/12/18 05:48:57;;;;;;;6.95;5.28;;;;;;;;;;2058763;28;20166;-63
2021/12/18 05:49:57;;;;;;;6.18;4.47;;;;;;;;;;2062534;28;20177;-59
2021/12/18 05:50:57;;;;;;;6.38;4.82;;;;;;;;;;2058267;28;20277;-61
2021/12/18 05:51:58;;;;;;;7.05;5.28;;;;;;;;;;2063042;28;20173;-63
2021/12/18 05:52:59;;;;;;;5.25;4.30;;;;;;;;;;2058235;28;20190;-61
2021/12/18 05:54:00;;;;;;;4.95;3.78;;;;;;;;;;2063367;28;20169;-62
2021/12/18 05:55:00;;;;;;;5.18;3.95;;;;;;;;;;2062892;28;20243;-60
2021/12/18 05:56:00;;;;;;;4.18;3.78;;;;;;;;;;2063108;28;20642;-61
2021/12/18 05:57:05;;;;;;;4.88;4.38;;;;;;;;;;2063932;28;20185;-61
2021/12/18 05:58:05;;;;;;;5.47;4.63;;;;;;;;;;2063935;28;20221;-61
2021/12/18 05:59:05;;;;;;;4.40;4.00;;;;;;;;;;2064532;28;20185;-61
2021/12/18 06:00:06;;;;;;;4.43;4.03;;;;;;;;;;2062084;28;20205;-62
2021/12/18 06:01:08;;;;;;;5.03;4.13;;;;;;;;;;2063612;28;20185;-60
2021/12/18 06:02:08;;;;;;;4.45;3.90;;;;;;;;;;2067100;28;20206;-63
2021/12/18 06:03:08;;;;;;;3.97;3.67;;;;;;;;;;2064163;28;20327;-62
2021/12/18 06:04:08;;;;;;;5.38;4.43;;;;;;;;;;2062169;28;20193;-64
2021/12/18 06:05:10;;;;;;;4.82;3.88;;;;;;;;;;2063838;28;20201;-62
2021/12/18 06:06:11;;;;;;;4.80;4.30;;;;;;;;;;2063964;28;20550;-63
2021/12/18 06:07:27;;;;;;;4.97;4.03;;;;;;;;;;2064198;28;20191;-60
2021/12/18 06:08:31;;;;;;;4.95;4.20;;;;;;;;;;2054826;28;20180;-62
2021/12/18 06:09:33;;;;;;;4.68;4.05;;;;;;;;;;2051532;28;20185;-63
2021/12/18 06:10:34;;;;;;;5.03;4.45;;;;;;;;;;2053849;28;20578;-63
2021/12/18 06:11:37;;;;;;;4.75;4.05;;;;;;;;;;2055791;28;20221;-63
2021/12/18 06:12:38;;;;;;;4.32;4.00;;;;;;;;;;2059952;28;20180;-63
2021/12/18 06:13:38;;;;;;;4.07;3.67;;;;;;;;;;2063893;28;20284;-62
2021/12/18 06:14:38;;;;;;;5.88;4.20;;;;;;;;;;2059208;28;20188;-60
2021/12/18 06:15:38;;;;;;;4.13;3.65;;;;;;;;;;2060849;28;20178;-62
2021/12/18 06:16:39;;;;;;;4.85;3.60;;;;;;;;;;2063903;28;20221;-63
2021/12/18 06:17:39;;;;;;;4.25;3.85;;;;;;;;;;2063044;28;20208;-62
2021/12/18 06:18:40;;;;;;;4.68;3.90;;;;;;;;;;2054847;28;20193;-63
2021/12/18 06:19:41;;;;;;;5.60;4.10;;;;;;;;;;2054903;28;20178;-60
2021/12/18 06:20:41;;;;;;;4.80;4.13;;;;;;;;;;2060904;28;20169;-60
2021/12/18 06:21:42;;;;;;;4.32;3.83;;;;;;;;;;2062175;28;20268;-63
2021/12/18 06:22:42;;;;;;;3.95;3.53;;;;;;;;;;2056243;28;20170;-61
2021/12/18 06:23:43;;;;;;;3.67;3.38;;;;;;;;;;2055545;28;20187;-60
2021/12/18 06:24:43;;;;;;;3.97;3.55;;;;;;;;;;2060837;28;20283;-61
2021/12/18 06:25:45;;;;;;;3.83;3.35;;;;;;;;;;2060381;28;20201;-63
2021/12/18 06:26:45;;;;;;;3.70;3.40;;;;;;;;;;2063448;28;20232;-62
2021/12/18 06:27:45;;;;;;;3.10;2.88;;;;;;;;;;2061647;28;20190;-60
2021/12/18 06:28:46;;;;;;;3.00;2.58;;;;;;;;;;2057284;28;20177;-62
2021/12/18 06:29:47;;;;;;;4.00;3.40;;;;;;;;;;2057018;28;20608;-61
2021/12/18 06:30:48;;;;;;;3.42;3.08;;;;;;;;;;2059566;28;20202;-61
2021/12/18 06:31:49;;;;;;;3.45;3.10;;;;;;;;;;2057002;28;20515;-60
2021/12/18 06:32:49;;;;;;;3.63;3.33;;;;;;;;;;2055148;28;20194;-62
2021/12/18 06:33:49;;;;;;;4.25;3.35;;;;;;;;;;2056524;28;20202;-60
2021/12/18 06:34:50;;;;;;;3.35;3.05;;;;;;;;;;2064272;28;20182;-60
2021/12/18 06:35:50;;;;;;;3.83;3.53;;;;;;;;;;2064873;28;20240;-62
2021/12/18 06:36:50;;;;;;;4.20;3.80;;;;;;;;;;2060348;28;20202;-62
2021/12/18 06:37:51;;;;;;;5.07;4.15;;;;;;;;;;2064614;28;20264;-63
2021/12/18 06:38:51;;;;;;;5.28;4.63;;;;;;;;;;2062719;28;20178;-60
2021/12/18 06:39:51;;;;;;;4.57;3.70;;;;;;;;;;2064454;28;20188;-59
2021/12/18 06:40:52;;;;;;;5.85;4.05;;;;;;;;;;2063663;28;20170;-60
2021/12/18 06:41:53;;;;;;;5.28;3.80;;;;;;;;;;2063582;28;20247;-61
2021/12/18 06:42:53;;;;;;;5.28;3.50;;;;;;;;;;2055940;28;20499;-62
2021/12/18 06:43:54;;;;;;;4.00;3.63;;;;;;;;;;2056182;28;20166;-62
2021/12/18 06:44:54;;;;;;;4.25;3.85;;;;;;;;;;2064793;28;20269;-61
2021/12/18 06:45:54;;;;;;;3.85;3.45;;;;;;;;;;2064362;28;20170;-60
2021/12/18 06:46:56;;;;;;;5.20;3.63;;;;;;;;;;2061643;28;20263;-62
2021/12/18 06:47:56;;;;;;;4.80;4.18;;;;;;;;;;2063632;28;20174;-64
2021/12/18 06:48:56;;;;;;;4.57;4.18;;;;;;;;;;2062497;28;20170;-61
2021/12/18 06:49:56;;;;;;;4.68;4.05;;;;;;;;;;2064752;28;20181;-58